sensor_id;sensor_type;location;lat;lon;timestamp;P1;durP1;ratioP1;P2;durP2;ratioP2
75603;SDS011;64187;51.010;13.792;2022-11-20T00:00:16;22.55;;;11.32;;
75603;SDS011;64187;51.010;13.792;2022-11-20T00:05:16;26.15;;;9.65;;
75603;SDS011;64187;51.010;13.792;2022-11-20T00:10:15;28.98;;;11.52;;
75603;SDS011;64187;51.010;13.792;2022-11-20T00:15:14;27.00;;;10.45;;
75603;SDS011;64187;51.010;13.792;2022-11-20T00:20:14;29.30;;;9.45;;
75603;SDS011;64187;51.010;13.792;2022-11-20T00:25:14;27.30;;;10.25;;
75603;SDS011;64187;51.010;13.792;2022-11-20T00:30:13;29.33;;;10.75;;
75603;SDS011;64187;51.010;13.792;2022-11-20T00:35:12;25.35;;;9.80;;
75603;SDS011;64187;51.010;13.792;2022-11-20T00:40:11;20.92;;;8.98;;
75603;SDS011;64187;51.010;13.792;2022-11-20T00:45:11;19.10;;;9.68;;
75603;SDS011;64187;51.010;13.792;2022-11-20T00:50:10;16.88;;;7.80;;
75603;SDS011;64187;51.010;13.792;2022-11-20T00:55:08;16.60;;;7.97;;
75603;SDS011;64187;51.010;13.792;2022-11-20T01:00:08;24.48;;;9.35;;
75603;SDS011;64187;51.010;13.792;2022-11-20T01:05:09;18.48;;;8.77;;
75603;SDS011;64187;51.010;13.792;2022-11-20T01:10:08;18.42;;;8.27;;
75603;SDS011;64187;51.010;13.792;2022-11-20T01:15:07;19.85;;;7.15;;
75603;SDS011;64187;51.010;13.792;2022-11-20T01:20:07;22.90;;;8.65;;
75603;SDS011;64187;51.010;13.792;2022-11-20T01:25:06;16.48;;;7.82;;
75603;SDS011;64187;51.010;13.792;2022-11-20T01:30:06;17.33;;;7.95;;
75603;SDS011;64187;51.010;13.792;2022-11-20T01:35:05;16.83;;;7.63;;
75603;SDS011;64187;51.010;13.792;2022-11-20T01:40:04;13.88;;;7.45;;
75603;SDS011;64187;51.010;13.792;2022-11-20T01:45:42;15.93;;;7.55;;
75603;SDS011;64187;51.010;13.792;2022-11-20T01:51:01;16.80;;;7.70;;
75603;SDS011;64187;51.010;13.792;2022-11-20T01:56:03;16.90;;;7.30;;
75603;SDS011;64187;51.010;13.792;2022-11-20T02:11:54;19.10;;;7.80;;
75603;SDS011;64187;51.010;13.792;2022-11-20T02:16:53;14.90;;;6.07;;
75603;SDS011;64187;51.010;13.792;2022-11-20T02:27:18;10.50;;;6.10;;
75603;SDS011;64187;51.010;13.792;2022-11-20T02:32:20;11.07;;;4.72;;
75603;SDS011;64187;51.010;13.792;2022-11-20T02:37:21;12.95;;;5.13;;
75603;SDS011;64187;51.010;13.792;2022-11-20T02:42:20;11.45;;;5.50;;
75603;SDS011;64187;51.010;13.792;2022-11-20T02:47:19;12.90;;;6.15;;
75603;SDS011;64187;51.010;13.792;2022-11-20T02:52:18;12.43;;;6.13;;
75603;SDS011;64187;51.010;13.792;2022-11-20T02:57:16;13.35;;;5.80;;
75603;SDS011;64187;51.010;13.792;2022-11-20T03:02:15;13.93;;;6.30;;
75603;SDS011;64187;51.010;13.792;2022-11-20T03:07:14;11.75;;;6.00;;
75603;SDS011;64187;51.010;13.792;2022-11-20T03:12:14;10.18;;;5.18;;
75603;SDS011;64187;51.010;13.792;2022-11-20T03:17:13;12.38;;;5.82;;
75603;SDS011;64187;51.010;13.792;2022-11-20T03:22:12;9.75;;;5.70;;
75603;SDS011;64187;51.010;13.792;2022-11-20T03:27:10;12.05;;;5.72;;
75603;SDS011;64187;51.010;13.792;2022-11-20T03:32:09;11.77;;;5.55;;
75603;SDS011;64187;51.010;13.792;2022-11-20T03:37:08;10.98;;;5.80;;
75603;SDS011;64187;51.010;13.792;2022-11-20T03:42:08;11.23;;;5.25;;
75603;SDS011;64187;51.010;13.792;2022-11-20T03:47:27;10.20;;;5.25;;
75603;SDS011;64187;51.010;13.792;2022-11-20T03:52:26;10.30;;;4.70;;
75603;SDS011;64187;51.010;13.792;2022-11-20T03:57:25;10.18;;;4.40;;
75603;SDS011;64187;51.010;13.792;2022-11-20T04:02:24;10.40;;;5.43;;
75603;SDS011;64187;51.010;13.792;2022-11-20T04:07:23;10.68;;;5.10;;
75603;SDS011;64187;51.010;13.792;2022-11-20T04:12:22;12.68;;;5.15;;
75603;SDS011;64187;51.010;13.792;2022-11-20T04:17:21;10.23;;;5.20;;
75603;SDS011;64187;51.010;13.792;2022-11-20T04:22:19;10.32;;;4.78;;
75603;SDS011;64187;51.010;13.792;2022-11-20T04:27:18;12.05;;;5.20;;
75603;SDS011;64187;51.010;13.792;2022-11-20T04:32:17;10.75;;;5.30;;
75603;SDS011;64187;51.010;13.792;2022-11-20T04:37:16;12.23;;;5.40;;
75603;SDS011;64187;51.010;13.792;2022-11-20T04:42:15;12.80;;;5.32;;
75603;SDS011;64187;51.010;13.792;2022-11-20T04:47:29;13.63;;;6.35;;
75603;SDS011;64187;51.010;13.792;2022-11-20T04:52:27;15.02;;;6.10;;
75603;SDS011;64187;51.010;13.792;2022-11-20T04:57:26;11.35;;;5.40;;
75603;SDS011;64187;51.010;13.792;2022-11-20T05:02:25;14.48;;;5.57;;
75603;SDS011;64187;51.010;13.792;2022-11-20T05:07:24;11.88;;;4.97;;
75603;SDS011;64187;51.010;13.792;2022-11-20T05:12:22;12.73;;;6.20;;
75603;SDS011;64187;51.010;13.792;2022-11-20T05:17:22;10.60;;;4.72;;
75603;SDS011;64187;51.010;13.792;2022-11-20T05:22:20;12.02;;;4.38;;
75603;SDS011;64187;51.010;13.792;2022-11-20T05:27:19;9.75;;;4.20;;
75603;SDS011;64187;51.010;13.792;2022-11-20T05:32:18;11.93;;;4.80;;
75603;SDS011;64187;51.010;13.792;2022-11-20T05:37:17;11.55;;;4.57;;
75603;SDS011;64187;51.010;13.792;2022-11-20T05:42:16;10.30;;;3.85;;
75603;SDS011;64187;51.010;13.792;2022-11-20T05:47:31;8.88;;;4.13;;
75603;SDS011;64187;51.010;13.792;2022-11-20T05:52:32;8.35;;;4.05;;
75603;SDS011;64187;51.010;13.792;2022-11-20T05:57:31;7.88;;;5.13;;
75603;SDS011;64187;51.010;13.792;2022-11-20T06:02:30;9.15;;;4.40;;
75603;SDS011;64187;51.010;13.792;2022-11-20T06:07:33;6.00;;;3.53;;
75603;SDS011;64187;51.010;13.792;2022-11-20T06:12:32;11.63;;;4.18;;
75603;SDS011;64187;51.010;13.792;2022-11-20T06:17:31;8.63;;;4.70;;
75603;SDS011;64187;51.010;13.792;2022-11-20T06:22:30;11.90;;;4.00;;
75603;SDS011;64187;51.010;13.792;2022-11-20T06:27:30;8.07;;;4.15;;
75603;SDS011;64187;51.010;13.792;2022-11-20T06:32:29;8.18;;;3.95;;
75603;SDS011;64187;51.010;13.792;2022-11-20T06:37:28;9.35;;;4.95;;
75603;SDS011;64187;51.010;13.792;2022-11-20T06:42:26;10.10;;;5.50;;
75603;SDS011;64187;51.010;13.792;2022-11-20T06:47:25;14.25;;;5.75;;
75603;SDS011;64187;51.010;13.792;2022-11-20T06:52:24;11.90;;;5.60;;
75603;SDS011;64187;51.010;13.792;2022-11-20T06:57:23;11.95;;;6.15;;
75603;SDS011;64187;51.010;13.792;2022-11-20T07:02:22;14.18;;;6.00;;
75603;SDS011;64187;51.010;13.792;2022-11-20T07:07:20;12.25;;;5.85;;
75603;SDS011;64187;51.010;13.792;2022-11-20T07:12:20;12.55;;;5.15;;
75603;SDS011;64187;51.010;13.792;2022-11-20T07:17:19;12.70;;;5.43;;
75603;SDS011;64187;51.010;13.792;2022-11-20T07:22:17;16.92;;;6.53;;
75603;SDS011;64187;51.010;13.792;2022-11-20T07:27:16;15.10;;;6.80;;
75603;SDS011;64187;51.010;13.792;2022-11-20T07:32:15;15.13;;;6.43;;
75603;SDS011;64187;51.010;13.792;2022-11-20T07:37:15;14.45;;;6.55;;
75603;SDS011;64187;51.010;13.792;2022-11-20T07:42:14;14.45;;;6.50;;
75603;SDS011;64187;51.010;13.792;2022-11-20T07:47:13;14.82;;;7.03;;
75603;SDS011;64187;51.010;13.792;2022-11-20T07:52:12;18.17;;;8.05;;
75603;SDS011;64187;51.010;13.792;2022-11-20T07:57:11;18.75;;;8.45;;
75603;SDS011;64187;51.010;13.792;2022-11-20T08:02:10;19.52;;;8.43;;
75603;SDS011;64187;51.010;13.792;2022-11-20T08:07:09;18.50;;;7.57;;
75603;SDS011;64187;51.010;13.792;2022-11-20T08:12:09;17.83;;;7.70;;
75603;SDS011;64187;51.010;13.792;2022-11-20T08:17:35;17.92;;;8.57;;
75603;SDS011;64187;51.010;13.792;2022-11-20T08:22:34;19.50;;;8.93;;
75603;SDS011;64187;51.010;13.792;2022-11-20T08:27:33;24.38;;;10.30;;
75603;SDS011;64187;51.010;13.792;2022-11-20T08:32:32;25.38;;;11.35;;
75603;SDS011;64187;51.010;13.792;2022-11-20T08:37:34;24.33;;;11.02;;
75603;SDS011;64187;51.010;13.792;2022-11-20T08:42:33;24.48;;;11.20;;
75603;SDS011;64187;51.010;13.792;2022-11-20T08:47:31;23.40;;;11.35;;
75603;SDS011;64187;51.010;13.792;2022-11-20T08:52:30;23.95;;;10.15;;
75603;SDS011;64187;51.010;13.792;2022-11-20T08:57:36;26.10;;;11.80;;
75603;SDS011;64187;51.010;13.792;2022-11-20T09:02:36;26.60;;;11.75;;
75603;SDS011;64187;51.010;13.792;2022-11-20T09:07:34;27.45;;;12.07;;
75603;SDS011;64187;51.010;13.792;2022-11-20T09:12:33;24.33;;;11.35;;
75603;SDS011;64187;51.010;13.792;2022-11-20T09:17:32;22.45;;;10.88;;
75603;SDS011;64187;51.010;13.792;2022-11-20T09:22:31;18.70;;;9.18;;
75603;SDS011;64187;51.010;13.792;2022-11-20T09:27:31;20.08;;;9.93;;
75603;SDS011;64187;51.010;13.792;2022-11-20T09:32:30;44.13;;;16.98;;
75603;SDS011;64187;51.010;13.792;2022-11-20T09:37:28;19.25;;;10.70;;
75603;SDS011;64187;51.010;13.792;2022-11-20T09:42:31;19.05;;;10.20;;
75603;SDS011;64187;51.010;13.792;2022-11-20T09:57:54;18.27;;;9.98;;
75603;SDS011;64187;51.010;13.792;2022-11-20T10:02:55;21.58;;;9.57;;
75603;SDS011;64187;51.010;13.792;2022-11-20T10:08:18;21.38;;;10.23;;
75603;SDS011;64187;51.010;13.792;2022-11-20T10:24:39;20.58;;;9.00;;
75603;SDS011;64187;51.010;13.792;2022-11-20T10:29:43;15.68;;;8.05;;
75603;SDS011;64187;51.010;13.792;2022-11-20T10:34:57;16.13;;;7.82;;
75603;SDS011;64187;51.010;13.792;2022-11-20T10:45:48;16.95;;;7.93;;
75603;SDS011;64187;51.010;13.792;2022-11-20T10:56:21;16.48;;;8.48;;
75603;SDS011;64187;51.010;13.792;2022-11-20T11:01:28;18.70;;;8.90;;
75603;SDS011;64187;51.010;13.792;2022-11-20T11:06:40;16.13;;;8.02;;
75603;SDS011;64187;51.010;13.792;2022-11-20T11:11:45;16.20;;;7.55;;
75603;SDS011;64187;51.010;13.792;2022-11-20T11:16:51;16.42;;;7.40;;
75603;SDS011;64187;51.010;13.792;2022-11-20T11:21:53;16.30;;;7.22;;
75603;SDS011;64187;51.010;13.792;2022-11-20T11:26:56;14.88;;;7.75;;
75603;SDS011;64187;51.010;13.792;2022-11-20T11:32:04;15.15;;;8.02;;
75603;SDS011;64187;51.010;13.792;2022-11-20T11:37:03;12.77;;;6.60;;
75603;SDS011;64187;51.010;13.792;2022-11-20T11:42:11;11.93;;;6.40;;
75603;SDS011;64187;51.010;13.792;2022-11-20T11:52:24;11.48;;;6.50;;
75603;SDS011;64187;51.010;13.792;2022-11-20T12:18:18;10.55;;;5.53;;
75603;SDS011;64187;51.010;13.792;2022-11-20T12:24:03;9.60;;;5.35;;
75603;SDS011;64187;51.010;13.792;2022-11-20T12:39:40;11.43;;;5.22;;
75603;SDS011;64187;51.010;13.792;2022-11-20T12:55:35;12.52;;;5.57;;
75603;SDS011;64187;51.010;13.792;2022-11-20T13:00:43;11.98;;;5.75;;
75603;SDS011;64187;51.010;13.792;2022-11-20T13:11:18;12.48;;;5.93;;
75603;SDS011;64187;51.010;13.792;2022-11-20T13:16:24;11.18;;;6.10;;
75603;SDS011;64187;51.010;13.792;2022-11-20T13:21:39;13.05;;;6.38;;
75603;SDS011;64187;51.010;13.792;2022-11-20T13:26:44;11.93;;;6.63;;
75603;SDS011;64187;51.010;13.792;2022-11-20T13:31:45;13.65;;;6.50;;
75603;SDS011;64187;51.010;13.792;2022-11-20T13:36:48;12.55;;;6.18;;
75603;SDS011;64187;51.010;13.792;2022-11-20T13:41:56;12.27;;;5.80;;
75603;SDS011;64187;51.010;13.792;2022-11-20T13:46:57;9.90;;;5.53;;
75603;SDS011;64187;51.010;13.792;2022-11-20T14:02:22;11.07;;;5.93;;
75603;SDS011;64187;51.010;13.792;2022-11-20T14:07:25;9.70;;;4.38;;
75603;SDS011;64187;51.010;13.792;2022-11-20T14:12:31;9.25;;;5.78;;
75603;SDS011;64187;51.010;13.792;2022-11-20T14:17:32;7.65;;;4.15;;
75603;SDS011;64187;51.010;13.792;2022-11-20T14:22:32;8.23;;;4.63;;
75603;SDS011;64187;51.010;13.792;2022-11-20T14:27:38;8.15;;;3.78;;
75603;SDS011;64187;51.010;13.792;2022-11-20T14:32:39;8.35;;;4.25;;
75603;SDS011;64187;51.010;13.792;2022-11-20T14:37:40;7.68;;;3.55;;
75603;SDS011;64187;51.010;13.792;2022-11-20T14:42:43;8.98;;;4.75;;
75603;SDS011;64187;51.010;13.792;2022-11-20T14:47:42;10.38;;;5.35;;
75603;SDS011;64187;51.010;13.792;2022-11-20T14:52:49;9.85;;;4.68;;
75603;SDS011;64187;51.010;13.792;2022-11-20T14:57:54;11.00;;;5.70;;
75603;SDS011;64187;51.010;13.792;2022-11-20T15:02:55;13.05;;;5.95;;
75603;SDS011;64187;51.010;13.792;2022-11-20T15:08:05;10.63;;;4.78;;
75603;SDS011;64187;51.010;13.792;2022-11-20T15:13:13;9.55;;;4.82;;
75603;SDS011;64187;51.010;13.792;2022-11-20T15:23:36;9.23;;;5.10;;
75603;SDS011;64187;51.010;13.792;2022-11-20T15:28:36;11.48;;;6.38;;
75603;SDS011;64187;51.010;13.792;2022-11-20T15:33:39;11.15;;;5.45;;
75603;SDS011;64187;51.010;13.792;2022-11-20T15:38:38;12.75;;;6.97;;
75603;SDS011;64187;51.010;13.792;2022-11-20T15:43:37;15.27;;;5.97;;
75603;SDS011;64187;51.010;13.792;2022-11-20T15:48:41;13.80;;;7.18;;
75603;SDS011;64187;51.010;13.792;2022-11-20T15:53:46;14.23;;;6.93;;
75603;SDS011;64187;51.010;13.792;2022-11-20T15:58:44;13.20;;;6.68;;
75603;SDS011;64187;51.010;13.792;2022-11-20T16:03:43;13.50;;;6.25;;
75603;SDS011;64187;51.010;13.792;2022-11-20T16:08:43;11.60;;;6.32;;
75603;SDS011;64187;51.010;13.792;2022-11-20T16:13:42;13.65;;;6.55;;
75603;SDS011;64187;51.010;13.792;2022-11-20T16:18:59;14.52;;;8.00;;
75603;SDS011;64187;51.010;13.792;2022-11-20T16:23:59;13.27;;;7.03;;
75603;SDS011;64187;51.010;13.792;2022-11-20T16:29:00;17.67;;;9.05;;
75603;SDS011;64187;51.010;13.792;2022-11-20T16:34:05;14.57;;;7.60;;
75603;SDS011;64187;51.010;13.792;2022-11-20T16:39:10;19.23;;;10.10;;
75603;SDS011;64187;51.010;13.792;2022-11-20T16:44:17;17.85;;;9.07;;
75603;SDS011;64187;51.010;13.792;2022-11-20T16:49:17;19.73;;;9.63;;
75603;SDS011;64187;51.010;13.792;2022-11-20T16:54:15;16.85;;;8.98;;
75603;SDS011;64187;51.010;13.792;2022-11-20T16:59:18;18.60;;;8.60;;
75603;SDS011;64187;51.010;13.792;2022-11-20T17:04:17;17.30;;;8.98;;
75603;SDS011;64187;51.010;13.792;2022-11-20T17:09:16;14.05;;;7.72;;
75603;SDS011;64187;51.010;13.792;2022-11-20T17:14:15;16.90;;;8.15;;
75603;SDS011;64187;51.010;13.792;2022-11-20T17:19:14;16.83;;;8.15;;
75603;SDS011;64187;51.010;13.792;2022-11-20T17:24:13;17.42;;;6.82;;
75603;SDS011;64187;51.010;13.792;2022-11-20T17:29:14;18.40;;;9.15;;
75603;SDS011;64187;51.010;13.792;2022-11-20T17:34:15;18.02;;;9.20;;
75603;SDS011;64187;51.010;13.792;2022-11-20T17:39:14;18.25;;;8.85;;
75603;SDS011;64187;51.010;13.792;2022-11-20T17:44:14;17.45;;;8.95;;
75603;SDS011;64187;51.010;13.792;2022-11-20T17:49:13;17.83;;;8.88;;
75603;SDS011;64187;51.010;13.792;2022-11-20T17:54:16;16.92;;;9.38;;
75603;SDS011;64187;51.010;13.792;2022-11-20T17:59:15;18.15;;;8.45;;
75603;SDS011;64187;51.010;13.792;2022-11-20T18:04:16;21.00;;;9.23;;
75603;SDS011;64187;51.010;13.792;2022-11-20T18:09:15;15.52;;;8.18;;
75603;SDS011;64187;51.010;13.792;2022-11-20T18:14:15;20.65;;;8.95;;
75603;SDS011;64187;51.010;13.792;2022-11-20T18:19:35;15.68;;;7.30;;
75603;SDS011;64187;51.010;13.792;2022-11-20T18:24:48;15.95;;;8.93;;
75603;SDS011;64187;51.010;13.792;2022-11-20T18:29:47;18.73;;;9.40;;
75603;SDS011;64187;51.010;13.792;2022-11-20T18:34:49;22.98;;;9.60;;
75603;SDS011;64187;51.010;13.792;2022-11-20T18:39:48;21.92;;;11.63;;
75603;SDS011;64187;51.010;13.792;2022-11-20T18:44:47;24.23;;;12.57;;
75603;SDS011;64187;51.010;13.792;2022-11-20T18:49:51;24.23;;;13.35;;
75603;SDS011;64187;51.010;13.792;2022-11-20T19:00:20;24.42;;;11.90;;
75603;SDS011;64187;51.010;13.792;2022-11-20T19:05:19;26.70;;;12.30;;
75603;SDS011;64187;51.010;13.792;2022-11-20T19:10:18;27.40;;;14.45;;
75603;SDS011;64187;51.010;13.792;2022-11-20T19:15:17;22.75;;;12.00;;
75603;SDS011;64187;51.010;13.792;2022-11-20T19:20:16;25.35;;;13.23;;
75603;SDS011;64187;51.010;13.792;2022-11-20T19:25:16;26.98;;;13.50;;
75603;SDS011;64187;51.010;13.792;2022-11-20T19:30:15;26.42;;;13.70;;
75603;SDS011;64187;51.010;13.792;2022-11-20T19:35:14;24.35;;;12.18;;
75603;SDS011;64187;51.010;13.792;2022-11-20T19:40:13;27.08;;;13.68;;
75603;SDS011;64187;51.010;13.792;2022-11-20T19:45:12;26.08;;;13.57;;
75603;SDS011;64187;51.010;13.792;2022-11-20T19:50:11;26.10;;;13.73;;
75603;SDS011;64187;51.010;13.792;2022-11-20T19:55:10;27.15;;;13.23;;
75603;SDS011;64187;51.010;13.792;2022-11-20T20:06:35;23.85;;;12.95;;
75603;SDS011;64187;51.010;13.792;2022-11-20T20:11:36;26.92;;;13.02;;
75603;SDS011;64187;51.010;13.792;2022-11-20T20:16:36;24.65;;;13.35;;
75603;SDS011;64187;51.010;13.792;2022-11-20T20:21:34;28.40;;;13.75;;
75603;SDS011;64187;51.010;13.792;2022-11-20T20:26:33;25.25;;;12.55;;
75603;SDS011;64187;51.010;13.792;2022-11-20T20:36:29;22.63;;;12.60;;
75603;SDS011;64187;51.010;13.792;2022-11-20T20:41:29;28.13;;;13.45;;
75603;SDS011;64187;51.010;13.792;2022-11-20T20:46:28;26.25;;;12.32;;
75603;SDS011;64187;51.010;13.792;2022-11-20T20:51:27;26.92;;;12.55;;
75603;SDS011;64187;51.010;13.792;2022-11-20T20:56:26;23.13;;;12.18;;
75603;SDS011;64187;51.010;13.792;2022-11-20T21:01:25;28.83;;;12.88;;
75603;SDS011;64187;51.010;13.792;2022-11-20T21:06:26;19.80;;;10.75;;
75603;SDS011;64187;51.010;13.792;2022-11-20T21:11:25;26.55;;;12.57;;
75603;SDS011;64187;51.010;13.792;2022-11-20T21:16:23;30.13;;;12.63;;
75603;SDS011;64187;51.010;13.792;2022-11-20T21:21:22;27.20;;;12.82;;
75603;SDS011;64187;51.010;13.792;2022-11-20T21:26:40;29.80;;;13.27;;
75603;SDS011;64187;51.010;13.792;2022-11-20T21:31:38;25.35;;;12.48;;
75603;SDS011;64187;51.010;13.792;2022-11-20T21:36:37;26.17;;;12.77;;
75603;SDS011;64187;51.010;13.792;2022-11-20T21:41:36;26.25;;;13.38;;
75603;SDS011;64187;51.010;13.792;2022-11-20T21:46:37;28.58;;;12.57;;
75603;SDS011;64187;51.010;13.792;2022-11-20T21:51:37;24.75;;;10.95;;
75603;SDS011;64187;51.010;13.792;2022-11-20T21:56:36;30.95;;;12.35;;
75603;SDS011;64187;51.010;13.792;2022-11-20T22:01:35;29.98;;;13.63;;
75603;SDS011;64187;51.010;13.792;2022-11-20T22:06:33;34.30;;;14.45;;
75603;SDS011;64187;51.010;13.792;2022-11-20T22:11:32;30.92;;;13.18;;
75603;SDS011;64187;51.010;13.792;2022-11-20T22:16:32;25.23;;;11.13;;
75603;SDS011;64187;51.010;13.792;2022-11-20T22:21:32;30.25;;;13.93;;
75603;SDS011;64187;51.010;13.792;2022-11-20T22:26:33;31.83;;;13.30;;
75603;SDS011;64187;51.010;13.792;2022-11-20T22:31:37;24.23;;;11.00;;
75603;SDS011;64187;51.010;13.792;2022-11-20T22:36:37;29.95;;;12.27;;
75603;SDS011;64187;51.010;13.792;2022-11-20T22:41:36;26.65;;;12.90;;
75603;SDS011;64187;51.010;13.792;2022-11-20T22:46:35;30.17;;;15.02;;
75603;SDS011;64187;51.010;13.792;2022-11-20T22:51:36;26.98;;;13.63;;
75603;SDS011;64187;51.010;13.792;2022-11-20T22:56:36;32.38;;;15.35;;
75603;SDS011;64187;51.010;13.792;2022-11-20T23:01:35;28.30;;;14.43;;
75603;SDS011;64187;51.010;13.792;2022-11-20T23:06:35;32.58;;;14.82;;
75603;SDS011;64187;51.010;13.792;2022-11-20T23:11:34;34.00;;;16.52;;
75603;SDS011;64187;51.010;13.792;2022-11-20T23:16:33;35.35;;;16.42;;
75603;SDS011;64187;51.010;13.792;2022-11-20T23:21:34;36.97;;;15.90;;
75603;SDS011;64187;51.010;13.792;2022-11-20T23:26:35;37.80;;;16.55;;
75603;SDS011;64187;51.010;13.792;2022-11-20T23:31:35;36.70;;;17.70;;
75603;SDS011;64187;51.010;13.792;2022-11-20T23:36:34;38.50;;;16.48;;
75603;SDS011;64187;51.010;13.792;2022-11-20T23:41:34;38.13;;;17.58;;
75603;SDS011;64187;51.010;13.792;2022-11-20T23:46:32;38.60;;;17.08;;
75603;SDS011;64187;51.010;13.792;2022-11-20T23:51:31;38.95;;;17.33;;
75603;SDS011;64187;51.010;13.792;2022-11-20T23:56:30;40.80;;;16.60;;
